Time;durP1;ratioP1;P1;durP2;ratioP2;P2;SDS_P1;SDS_P2;PMS_P1;PMS_P2;Temp;Humidity;BMP_temperature;BMP_pressure;BME280_temperature;BME280_humidity;BME280_pressure;Samples;Min_cycle;Max_cycle;Signal;HPM_P1;HPM_P2
2022/06/07 00:02:02;;;;;;;740.88;666.85;;;;;;;18.85;60.42;96720.41;5074723;28;20209;-67
2022/06/07 00:04:27;;;;;;;822.92;734.95;;;;;;;18.77;60.89;96723.69;5072524;28;20270;-67
2022/06/07 00:06:53;;;;;;;901.25;789.00;;;;;;;18.85;60.87;96730.22;5074619;28;20690;-67
2022/06/07 00:09:18;;;;;;;1031.13;854.03;;;;;;;18.71;61.16;96722.16;5074274;28;20189;-68
2022/06/07 00:11:43;;;;;;;1075.13;861.70;;;;;;;18.88;61.09;96724.38;5073375;28;20246;-68
2022/06/07 00:14:09;;;;;;;1082.60;884.08;;;;;;;18.89;60.71;96724.06;5074322;28;20491;-68
2022/06/07 00:16:34;;;;;;;1111.53;902.50;;;;;;;18.55;61.99;96718.03;5064772;28;20602;-68
2022/06/07 00:18:59;;;;;;;1134.93;947.30;;;;;;;18.48;62.23;96713.03;5071066;28;20646;-69
2022/06/07 00:21:29;;;;;;;1149.85;973.55;;;;;;;18.59;62.13;96722.50;5074105;28;20208;-68
2022/06/07 00:23:55;;;;;;;1184.35;966.97;;;;;;;18.72;61.83;96721.09;5074273;28;20184;-68
2022/06/07 00:26:20;;;;;;;1165.13;978.13;;;;;;;18.69;61.84;96716.31;5073661;28;20213;-69
2022/06/07 00:28:46;;;;;;;1106.70;987.72;;;;;;;18.57;62.22;96722.00;5074513;28;20607;-68
2022/06/07 00:31:11;;;;;;;1184.03;999.90;;;;;;;18.76;61.70;96723.97;5073924;28;20200;-69
2022/06/07 00:33:37;;;;;;;1153.50;999.90;;;;;;;18.64;62.00;96716.38;5073554;28;20181;-68
2022/06/07 00:36:03;;;;;;;1029.50;923.45;;;;;;;18.38;63.21;96720.28;5073588;28;20537;-69
2022/06/07 00:38:30;;;;;;;1111.60;998.20;;;;;;;18.54;62.43;96717.25;5073481;28;20256;-68
2022/06/07 00:40:56;;;;;;;1051.28;944.70;;;;;;;18.55;62.41;96726.00;5073584;28;20571;-69
2022/06/07 00:43:23;;;;;;;935.50;844.65;;;;;;;18.71;62.20;96731.97;5073316;28;20181;-69
2022/06/07 00:45:48;;;;;;;874.67;793.50;;;;;;;18.56;62.85;96722.25;5073683;28;20205;-69
2022/06/07 00:48:14;;;;;;;957.83;867.97;;;;;;;18.56;63.51;96720.41;5073179;28;20181;-69
2022/06/07 00:50:43;;;;;;;954.53;866.08;;;;;;;18.29;64.44;96725.38;5073397;28;20196;-68
2022/06/07 00:53:35;;;;;;;897.30;815.10;;;;;;;18.55;63.53;96723.34;5073319;28;20703;-68
2022/06/07 00:56:01;;;;;;;922.83;837.42;;;;;;;18.32;64.43;96732.00;5071807;28;20192;-68
2022/06/07 00:58:28;;;;;;;847.90;770.90;;;;;;;18.33;64.40;96731.72;5073661;28;20185;-69
2022/06/07 01:00:55;;;;;;;904.45;823.10;;;;;;;18.18;65.20;96731.81;5073096;28;20209;-69
2022/06/07 01:03:21;;;;;;;837.60;759.92;;;;;;;18.30;64.55;96729.59;5073089;28;20181;-69
2022/06/07 01:05:51;;;;;;;848.88;773.70;;;;;;;18.04;65.27;96729.00;5070521;28;20278;-68
2022/06/07 01:11:01;;;;;;;809.78;737.10;;;;;;;18.40;64.06;96720.78;5073075;28;20192;-68
2022/06/07 01:13:32;;;;;;;954.42;863.03;;;;;;;18.19;66.19;96725.44;5072776;28;20185;-69
2022/06/07 01:16:04;;;;;;;1170.40;999.90;;;;;;;17.86;70.15;96719.03;5066134;28;20198;-69
2022/06/07 01:18:31;;;;;;;1083.00;944.22;;;;;;;17.88;72.02;96718.75;5064816;28;20207;-68
2022/06/07 01:21:33;;;;;;;978.95;890.33;;;;;;;17.73;71.03;96720.41;5073019;28;20181;-68
2022/06/07 01:23:59;;;;;;;1097.47;992.40;;;;;;;17.63;72.43;96717.81;4952963;28;20220;-68
2022/06/07 01:26:24;;;;;;;1005.92;908.22;;;;;;;17.52;72.42;96715.47;5047208;28;20900;-68
2022/06/07 01:28:50;;;;;;;1005.93;898.10;;;;;;;17.65;72.82;96713.06;5073063;28;20251;-68
2022/06/07 01:31:15;;;;;;;876.20;777.30;;;;;;;17.63;73.47;96709.06;5072998;28;20189;-69
2022/06/07 01:33:41;;;;;;;1028.30;873.15;;;;;;;17.53;74.64;96715.19;5072598;28;20188;-69
2022/06/07 01:36:14;;;;;;;1341.57;999.90;;;;;;;17.50;76.04;96720.25;5072704;28;20212;-69
2022/06/07 01:38:42;;;;;;;982.50;885.20;;;;;;;17.47;77.89;96710.97;5072162;28;20229;-69
2022/06/07 01:43:53;;;;;;;929.97;844.77;;;;;;;17.42;82.53;96716.31;5073114;28;20216;-69
2022/06/07 01:46:19;;;;;;;880.17;807.50;;;;;;;17.23;84.14;96715.31;5072597;28;20193;-69
2022/06/07 01:48:46;;;;;;;839.33;773.37;;;;;;;17.10;84.98;96705.28;5054597;28;20212;-69
2022/06/07 01:51:12;;;;;;;752.10;683.57;;;;;;;17.08;84.50;96704.75;5072681;28;20219;-68
2022/06/07 01:53:38;;;;;;;858.10;787.00;;;;;;;17.07;87.40;96706.63;5071570;28;20656;-69
2022/06/07 01:56:10;;;;;;;890.13;813.37;;;;;;;17.07;85.44;96711.13;5071207;28;20645;-69
2022/06/07 01:58:37;;;;;;;775.00;715.00;;;;;;;16.98;86.66;96708.25;5071389;28;20618;-69
2022/06/07 02:01:03;;;;;;;664.77;613.67;;;;;;;16.99;85.26;96700.03;5071021;28;20227;-69
2022/06/07 02:03:28;;;;;;;622.80;577.97;;;;;;;17.26;83.36;96702.31;5069633;28;20193;-68
2022/06/07 02:05:55;;;;;;;681.57;629.27;;;;;;;17.04;84.29;96699.22;5070900;28;20284;-69
2022/06/07 02:08:21;;;;;;;694.70;640.17;;;;;;;17.16;81.19;96699.72;5071475;28;20185;-69
2022/06/07 02:10:46;;;;;;;712.90;655.60;;;;;;;17.00;81.83;96696.31;5071222;28;20234;-69
2022/06/07 02:13:11;;;;;;;369.45;342.48;;;;;;;17.25;77.23;96695.44;5070426;28;20196;-69
2022/06/07 02:15:37;;;;;;;292.77;275.00;;;;;;;17.12;77.36;96689.91;5070459;28;20201;-69
2022/06/07 02:18:02;;;;;;;297.67;278.37;;;;;;;16.85;77.93;96693.69;5072030;28;20173;-68
2022/06/07 02:20:27;;;;;;;430.93;403.90;;;;;;;17.10;76.45;96687.56;5072542;28;20177;-69
2022/06/07 02:22:53;;;;;;;402.20;377.40;;;;;;;17.11;76.11;96693.66;5071829;28;20177;-68
2022/06/07 02:25:19;;;;;;;343.37;322.00;;;;;;;16.80;78.80;96684.97;5071634;28;20251;-68
2022/06/07 02:27:45;;;;;;;426.87;397.17;;;;;;;16.85;77.43;96687.59;5072222;28;20618;-68
2022/06/07 02:30:11;;;;;;;519.03;484.63;;;;;;;17.00;74.46;96680.41;5071501;28;20280;-68
2022/06/07 02:32:38;;;;;;;498.33;463.50;;;;;;;17.00;75.82;96680.41;5071710;28;20184;-68
2022/06/07 02:35:05;;;;;;;462.20;431.73;;;;;;;16.90;74.85;96677.00;5072666;28;20196;-68
2022/06/07 02:37:33;;;;;;;429.83;401.63;;;;;;;16.77;75.44;96678.38;5075247;28;20224;-69
2022/06/07 02:39:59;;;;;;;277.20;260.70;;;;;;;16.91;72.96;96668.00;5075129;28;20185;-69
2022/06/07 02:42:27;;;;;;;243.87;228.77;;;;;;;16.81;73.95;96671.47;5075667;28;20188;-69
2022/06/07 02:44:52;;;;;;;372.43;349.13;;;;;;;16.98;71.34;96668.53;5075622;28;20185;-69
2022/06/07 02:47:18;;;;;;;290.87;272.80;;;;;;;16.91;70.86;96665.34;5057778;28;20618;-69
2022/06/07 02:49:44;;;;;;;373.40;348.87;;;;;;;16.81;71.78;96658.25;5057783;28;20532;-69
2022/06/07 02:52:09;;;;;;;333.90;310.57;;;;;;;16.99;70.95;96660.31;5075525;28;20187;-68
2022/06/07 02:54:35;;;;;;;300.77;279.90;;;;;;;16.89;70.93;96655.03;5075652;28;20638;-68
2022/06/07 02:57:01;;;;;;;269.33;252.53;;;;;;;16.73;71.23;96650.03;5057403;28;20280;-69
2022/06/07 02:59:26;;;;;;;268.17;251.87;;;;;;;17.07;69.83;96653.66;5075029;28;20260;-69
2022/06/07 03:01:52;;;;;;;298.10;279.00;;;;;;;16.65;71.68;96651.41;5075646;28;20220;-68
2022/06/07 03:04:17;;;;;;;297.03;278.50;;;;;;;16.75;71.92;96651.38;5073402;28;20189;-68
2022/06/07 03:06:43;;;;;;;315.80;296.53;;;;;;;16.76;71.62;96647.66;5072912;28;20184;-68
2022/06/07 03:09:08;;;;;;;313.30;293.97;;;;;;;16.75;71.46;96647.94;5075742;28;20611;-68
2022/06/07 03:11:33;;;;;;;287.73;269.23;;;;;;;16.81;71.17;96652.94;5075656;28;20301;-69
2022/06/07 03:13:59;;;;;;;295.57;276.47;;;;;;;16.86;70.97;96658.22;5075717;28;20255;-68
2022/06/07 03:16:24;;;;;;;299.35;280.48;;;;;;;16.79;71.18;96662.19;5074294;28;20711;-68
2022/06/07 03:18:50;;;;;;;303.60;284.63;;;;;;;16.62;71.93;96659.84;5075821;28;20185;-68
2022/06/07 03:21:15;;;;;;;299.13;279.83;;;;;;;16.49;73.08;96661.19;5075507;28;20548;-68
2022/06/07 03:23:41;;;;;;;302.80;283.87;;;;;;;16.56;72.56;96658.25;5057451;28;20660;-68
2022/06/07 03:26:10;;;;;;;296.13;276.97;;;;;;;16.71;72.27;96663.56;5075510;28;20620;-68
2022/06/07 03:28:35;;;;;;;270.53;252.20;;;;;;;16.92;71.69;96659.78;5075424;28;20618;-68
2022/06/07 03:31:12;;;;;;;326.93;300.87;;;;;;;16.90;72.23;96653.16;5075409;28;20217;-68
2022/06/07 03:33:37;;;;;;;510.17;474.50;;;;;;;16.70;74.13;96645.31;5075269;28;20430;-68
2022/06/07 03:36:09;;;;;;;341.87;318.27;;;;;;;16.75;78.14;96650.56;5075251;28;20621;-68
2022/06/07 03:38:35;;;;;;;449.67;418.80;;;;;;;16.94;81.60;96660.31;5074733;28;20244;-68
2022/06/07 03:41:01;;;;;;;626.73;573.03;;;;;;;16.68;84.92;96655.34;5075161;28;20193;-68
2022/06/07 03:43:26;;;;;;;636.90;587.23;;;;;;;17.04;83.83;96655.00;5075081;28;20184;-68
2022/06/07 03:45:51;;;;;;;689.63;634.13;;;;;;;16.74;86.27;96660.38;5074476;28;20207;-68
2022/06/07 03:48:17;;;;;;;697.57;639.83;;;;;;;16.78;86.27;96660.63;5056143;28;20184;-68
2022/06/07 03:50:42;;;;;;;603.27;556.23;;;;;;;16.50;87.75;96662.75;5074851;28;20181;-68
2022/06/07 03:53:08;;;;;;;588.37;547.77;;;;;;;16.46;85.16;96664.34;5075022;28;20622;-68
2022/06/07 03:55:33;;;;;;;562.83;524.53;;;;;;;16.53;82.79;96672.03;5074636;28;20246;-68
2022/06/07 03:57:59;;;;;;;522.33;488.57;;;;;;;16.45;82.48;96670.69;5074679;28;20212;-68
2022/06/07 04:00:24;;;;;;;598.03;558.33;;;;;;;16.84;81.13;96663.00;5074882;28;20550;-68
2022/06/07 04:02:50;;;;;;;554.20;518.03;;;;;;;16.81;80.52;96660.09;5070784;28;20189;-69
2022/06/07 04:05:15;;;;;;;247.80;232.07;;;;;;;16.65;79.76;96663.84;5060709;28;20193;-69
2022/06/07 04:10:24;;;;;;;284.13;266.60;;;;;;;16.65;78.64;96659.34;5074443;28;20549;-69
2022/06/07 04:12:49;;;;;;;292.00;273.97;;;;;;;16.95;78.25;96664.53;5074272;28;20186;-69
2022/06/07 04:15:15;;;;;;;331.83;308.53;;;;;;;16.82;80.19;96659.84;5073247;28;20266;-69
2022/06/07 04:17:41;;;;;;;528.20;487.87;;;;;;;16.72;82.58;96656.41;5074462;28;20181;-69
2022/06/07 04:20:07;;;;;;;570.43;532.57;;;;;;;16.69;83.75;96654.28;5074718;28;20631;-69
2022/06/07 04:22:32;;;;;;;626.70;584.07;;;;;;;16.54;84.08;96647.16;5074559;28;20178;-69
2022/06/07 04:24:58;;;;;;;266.80;249.33;;;;;;;16.52;82.67;96644.78;5074268;28;20250;-69
2022/06/07 04:27:23;;;;;;;328.40;305.50;;;;;;;16.96;81.05;96652.91;5074352;28;20614;-69
2022/06/07 04:29:48;;;;;;;232.93;217.70;;;;;;;16.60;82.45;96651.41;5073991;28;20185;-69
2022/06/07 04:32:16;;;;;;;193.83;182.10;;;;;;;16.84;80.64;96652.41;5055742;28;20196;-69
2022/06/07 04:34:42;;;;;;;307.57;288.93;;;;;;;16.67;80.52;96659.84;5055864;28;20669;-69
2022/06/07 04:37:08;;;;;;;384.77;360.33;;;;;;;16.43;81.67;96664.09;5073707;28;20240;-70
2022/06/07 04:39:33;;;;;;;381.57;358.40;;;;;;;16.35;80.94;96668.06;5073440;28;20170;-69
2022/06/07 04:41:58;;;;;;;307.40;286.73;;;;;;;16.44;80.55;96666.47;5073785;28;20315;-69
2022/06/07 04:44:24;;;;;;;244.23;225.80;;;;;;;16.60;79.76;96675.22;5073590;28;20181;-69
2022/06/07 04:46:49;;;;;;;209.37;192.60;;;;;;;16.51;80.37;96668.84;5073633;28;20189;-69
2022/06/07 04:49:15;;;;;;;227.80;209.30;;;;;;;16.64;80.10;96668.34;5073993;28;20192;-69
2022/06/07 04:51:40;;;;;;;242.13;222.70;;;;;;;16.71;79.92;96676.81;5073678;28;20187;-69
2022/06/07 04:54:06;;;;;;;226.07;207.67;;;;;;;16.99;77.91;96678.06;5073850;28;20181;-69
2022/06/07 04:56:34;;;;;;;235.37;216.77;;;;;;;16.70;79.93;96672.56;5073100;28;20185;-70
2022/06/07 04:59:01;;;;;;;223.17;206.77;;;;;;;16.70;80.27;96674.41;5072729;28;20669;-67
2022/06/07 05:01:29;;;;;;;235.70;218.53;;;;;;;16.55;81.23;96675.22;5072928;28;20239;-69
2022/06/07 05:03:55;;;;;;;249.43;230.47;;;;;;;16.70;80.52;96677.06;5072101;28;20580;-69
2022/06/07 05:06:31;;;;;;;296.90;274.23;;;;;;;16.57;80.95;96673.06;5073480;28;20209;-69
2022/06/07 05:09:06;;;;;;;296.63;275.90;;;;;;;16.82;80.50;96680.22;5073827;28;20181;-68
2022/06/07 05:11:31;;;;;;;316.83;296.13;;;;;;;16.91;80.31;96679.38;5073041;28;20590;-69
2022/06/07 05:14:02;;;;;;;369.10;346.47;;;;;;;17.18;79.72;96686.19;5073724;28;20193;-68
2022/06/07 05:16:27;;;;;;;481.13;450.63;;;;;;;16.98;81.29;96695.00;5064395;28;20239;-68
2022/06/07 05:18:54;;;;;;;475.67;444.60;;;;;;;16.84;83.02;96699.25;5072654;28;20189;-68
2022/06/07 05:21:21;;;;;;;291.00;270.70;;;;;;;17.28;81.17;96700.19;5073210;28;20190;-67
2022/06/07 05:23:47;;;;;;;372.70;342.17;;;;;;;17.11;82.25;96691.75;5072803;28;20531;-67
2022/06/07 05:26:18;;;;;;;505.47;466.73;;;;;;;17.09;83.37;96701.06;5072221;28;20205;-67
2022/06/07 05:28:44;;;;;;;598.00;555.20;;;;;;;16.94;84.93;96704.56;5063660;28;20178;-67
2022/06/07 05:31:10;;;;;;;488.27;453.07;;;;;;;16.68;86.96;96703.00;5073264;28;20641;-66
2022/06/07 05:33:35;;;;;;;725.33;669.00;;;;;;;17.04;85.01;96705.31;5072756;28;20186;-71
2022/06/07 05:36:02;;;;;;;558.17;522.40;;;;;;;16.94;85.66;96709.84;5072791;28;20653;-67
2022/06/07 05:38:27;;;;;;;573.10;528.70;;;;;;;16.73;85.56;96695.84;5071919;28;20820;-67
2022/06/07 05:40:53;;;;;;;500.53;467.00;;;;;;;16.82;84.60;96691.59;5060986;28;20264;-67
2022/06/07 05:43:18;;;;;;;417.30;388.83;;;;;;;17.08;83.78;96702.13;5069012;28;20631;-67
2022/06/07 05:45:53;;;;;;;348.70;325.90;;;;;;;17.14;83.62;96706.34;5072778;28;20555;-68
2022/06/07 05:48:19;;;;;;;269.37;252.77;;;;;;;17.54;81.69;96703.53;5072579;28;20586;-70
2022/06/07 05:50:48;;;;;;;243.90;229.32;;;;;;;17.58;80.76;96715.16;5072848;28;20185;-69
2022/06/07 05:53:14;;;;;;;311.08;292.67;;;;;;;17.80;79.83;96712.97;5072310;28;20189;-69
2022/06/07 05:55:40;;;;;;;241.30;225.63;;;;;;;17.66;79.30;96729.75;5054300;28;20177;-69
2022/06/07 05:58:07;;;;;;;241.17;225.57;;;;;;;17.67;78.94;96721.50;5072785;28;20189;-70
2022/06/07 06:00:34;;;;;;;293.25;273.13;;;;;;;17.71;77.83;96716.47;5072273;28;20177;-68
2022/06/07 06:02:59;;;;;;;380.60;355.33;;;;;;;17.65;78.06;96713.06;5052621;28;20182;-67
2022/06/07 06:05:24;;;;;;;204.07;191.57;;;;;;;17.78;76.57;96707.13;5072125;28;20205;-68
2022/06/07 06:10:34;;;;;;;294.60;275.88;;;;;;;18.24;73.71;96712.94;5056546;28;20608;-68
2022/06/07 06:12:59;;;;;;;377.42;355.48;;;;;;;18.07;73.68;96717.03;5071987;28;20264;-68
2022/06/07 06:15:24;;;;;;;322.58;302.75;;;;;;;17.90;73.89;96719.25;5071218;28;20185;-68
2022/06/07 06:17:50;;;;;;;283.42;266.33;;;;;;;17.98;73.98;96716.03;5072199;28;20638;-68
2022/06/07 06:20:15;;;;;;;324.35;304.48;;;;;;;18.12;74.68;96719.66;5071951;28;20207;-68
2022/06/07 06:22:41;;;;;;;242.00;227.10;;;;;;;18.58;72.32;96714.81;5072115;28;20220;-68
2022/06/07 06:25:07;;;;;;;203.40;191.20;;;;;;;18.96;70.67;96713.91;5072328;28;20232;-68
2022/06/07 06:27:33;;;;;;;139.73;131.63;;;;;;;19.32;69.13;96713.53;5071719;28;20185;-68
2022/06/07 06:29:59;;;;;;;110.53;104.55;;;;;;;19.24;68.37;96714.16;5071628;28;20200;-69
2022/06/07 06:32:25;;;;;;;206.55;195.30;;;;;;;19.07;68.19;96698.66;5069898;28;20596;-70
2022/06/07 06:34:50;;;;;;;188.52;178.32;;;;;;;19.29;67.28;96704.25;5070318;28;20194;-71
2022/06/07 06:37:16;;;;;;;299.77;282.55;;;;;;;19.78;66.25;96706.59;5070290;28;20224;-69
2022/06/07 06:39:42;;;;;;;160.32;151.68;;;;;;;20.03;64.12;96704.66;5070654;28;20223;-70
2022/06/07 06:42:08;;;;;;;123.93;117.13;;;;;;;20.81;62.39;96710.06;5071615;28;20189;-70
2022/06/07 06:44:33;;;;;;;250.70;236.38;;;;;;;20.68;61.77;96721.47;5071548;28;20227;-70
2022/06/07 06:47:01;;;;;;;169.13;159.48;;;;;;;21.56;60.04;96713.22;5072000;28;20213;-72
2022/06/07 06:49:27;;;;;;;200.63;189.57;;;;;;;21.84;58.25;96713.16;5071643;28;20189;-70
2022/06/07 06:51:54;;;;;;;177.23;167.60;;;;;;;21.80;56.63;96723.63;5071402;28;20572;-70
2022/06/07 06:54:20;;;;;;;191.68;177.32;;;;;;;21.18;57.36;96721.72;5072050;28;20193;-70
2022/06/07 06:56:47;;;;;;;153.68;145.45;;;;;;;21.03;58.23;96730.75;5072655;28;20176;-70
2022/06/07 06:59:13;;;;;;;146.80;139.02;;;;;;;21.04;58.17;96727.00;5071387;28;20177;-70
2022/06/07 07:01:39;;;;;;;116.55;110.03;;;;;;;21.30;57.53;96727.31;5069826;28;20177;-71
2022/06/07 07:04:08;;;;;;;118.05;111.57;;;;;;;20.95;57.70;96728.75;5070601;28;20177;-72
2022/06/07 07:06:34;;;;;;;121.07;114.47;;;;;;;20.36;60.62;96729.47;5071589;28;20703;-70
2022/06/07 07:09:00;;;;;;;113.30;107.30;;;;;;;20.99;58.58;96729.75;5071321;28;20235;-70
2022/06/07 07:11:38;;;;;;;149.90;141.38;;;;;;;21.26;55.86;96729.81;5071553;28;20196;-70
2022/06/07 07:14:08;;;;;;;211.32;199.32;;;;;;;20.92;56.46;96724.81;5070616;28;20642;-69
2022/06/07 07:16:37;;;;;;;203.48;192.73;;;;;;;20.26;57.61;96722.41;5071602;28;20739;-72
2022/06/07 07:19:04;;;;;;;131.15;124.30;;;;;;;20.44;59.39;96726.16;5071761;28;20182;-70
2022/06/07 07:21:36;;;;;;;328.75;309.50;;;;;;;20.10;57.09;96721.84;5072654;28;20181;-70
2022/06/07 07:24:04;;;;;;;304.52;286.90;;;;;;;20.38;56.99;96727.31;5075263;28;20161;-70
2022/06/07 07:26:30;;;;;;;243.43;227.85;;;;;;;20.65;57.05;96720.22;5074774;28;20201;-69
2022/06/07 07:28:56;;;;;;;273.52;257.85;;;;;;;20.75;56.39;96716.56;5074627;28;20185;-69
2022/06/07 07:31:24;;;;;;;215.75;203.77;;;;;;;20.86;56.07;96711.84;5074726;28;20191;-70
2022/06/07 07:33:51;;;;;;;229.65;216.93;;;;;;;21.07;55.59;96719.19;5073956;28;20568;-70
2022/06/07 07:36:17;;;;;;;156.60;147.75;;;;;;;21.11;55.71;96722.06;5074974;28;20211;-70
2022/06/07 07:38:43;;;;;;;190.40;179.77;;;;;;;21.50;54.30;96721.59;5074725;28;20229;-70
2022/06/07 07:41:14;;;;;;;129.15;122.15;;;;;;;21.63;54.04;96722.66;5074680;28;20602;-69
2022/06/07 07:43:39;;;;;;;332.35;302.45;;;;;;;21.33;54.22;96729.41;5074241;28;20185;-70
2022/06/07 07:46:05;;;;;;;138.70;131.55;;;;;;;20.70;54.56;96730.78;5074786;28;20201;-70
2022/06/07 07:48:31;;;;;;;220.68;208.90;;;;;;;21.01;55.39;96719.59;5073996;28;20616;-70
2022/06/07 07:51:02;;;;;;;167.38;158.55;;;;;;;21.55;53.76;96716.97;5073972;28;20201;-70
2022/06/07 07:53:27;;;;;;;216.68;205.23;;;;;;;22.13;52.93;96712.78;5073650;28;20177;-70
2022/06/07 07:55:53;;;;;;;165.55;156.75;;;;;;;22.24;51.42;96706.91;5073721;28;20186;-70
2022/06/07 07:58:20;;;;;;;214.77;203.50;;;;;;;21.67;52.59;96708.44;5073542;28;20192;-70
2022/06/07 08:00:47;;;;;;;207.73;196.35;;;;;;;22.01;52.70;96707.22;5071799;28;20186;-70
2022/06/07 08:03:13;;;;;;;119.20;112.50;;;;;;;22.51;51.53;96700.69;5074121;28;20196;-70
2022/06/07 08:05:39;;;;;;;230.70;217.95;;;;;;;22.51;50.75;96706.03;5073728;28;20212;-70
2022/06/07 08:08:06;;;;;;;136.82;129.60;;;;;;;22.09;50.95;96698.47;5074299;28;20190;-72
2022/06/07 08:10:31;;;;;;;160.07;151.35;;;;;;;21.59;52.71;96698.47;5073546;28;20219;-70
2022/06/07 08:12:58;;;;;;;67.55;64.03;;;;;;;21.77;53.65;96702.91;5074167;28;20261;-70
2022/06/07 08:15:25;;;;;;;93.80;88.95;;;;;;;21.98;53.27;96704.06;5058833;28;20272;-70
2022/06/07 08:17:52;;;;;;;80.70;76.22;;;;;;;21.50;53.95;96703.72;5055745;28;20186;-69
2022/06/07 08:20:19;;;;;;;91.15;86.40;;;;;;;21.76;53.25;96703.97;5073699;28;20646;-70
2022/06/07 08:22:44;;;;;;;77.47;70.05;;;;;;;21.86;53.27;96708.28;5073724;28;20596;-69
2022/06/07 08:25:10;;;;;;;40.35;38.05;;;;;;;22.01;53.50;96701.88;5073125;28;20211;-70
2022/06/07 08:27:36;;;;;;;77.95;73.78;;;;;;;22.16;52.88;96702.31;5055641;28;20185;-69
2022/06/07 08:30:04;;;;;;;51.75;48.78;;;;;;;21.10;55.76;96699.94;5073399;28;20272;-69
2022/06/07 08:32:30;;;;;;;350.65;329.00;;;;;;;21.38;56.81;96706.09;5072565;28;20686;-69
2022/06/07 08:37:40;;;;;;;193.38;181.93;;;;;;;21.97;54.48;96705.13;5072171;28;20274;-69
2022/06/07 08:40:14;;;;;;;456.85;427.75;;;;;;;22.08;55.06;96707.56;5073540;28;20264;-69
2022/06/07 08:42:58;;;;;;;321.63;302.17;;;;;;;21.86;56.09;96697.63;5073171;28;20180;-69
2022/06/07 08:45:29;;;;;;;194.70;184.85;;;;;;;21.58;56.84;96697.69;5072874;28;20205;-69
2022/06/07 08:48:10;;;;;;;224.00;212.65;;;;;;;22.09;54.80;96693.94;5073426;28;20181;-69
2022/06/07 08:50:54;;;;;;;221.10;209.90;;;;;;;21.62;56.07;96694.44;5072707;28;20193;-68
2022/06/07 08:53:33;;;;;;;206.13;195.48;;;;;;;21.73;56.72;96691.25;5070894;28;20181;-68
2022/06/07 08:56:02;;;;;;;320.77;302.05;;;;;;;21.45;56.57;96693.16;5072654;28;20189;-68
2022/06/07 08:58:38;;;;;;;412.65;388.58;;;;;;;22.04;54.79;96691.38;5072964;28;20193;-69
2022/06/07 09:01:33;;;;;;;402.15;378.63;;;;;;;22.66;53.05;96689.63;5062325;28;20184;-69
2022/06/07 09:04:04;;;;;;;350.88;330.33;;;;;;;22.79;52.90;96672.72;5034285;28;20282;-69
2022/06/07 09:06:33;;;;;;;62.75;59.35;;;;;;;23.44;51.37;96682.72;5054630;28;20576;-69
2022/06/07 09:08:59;;;;;;;53.38;50.60;;;;;;;23.88;49.26;96673.69;5071708;28;20204;-69
2022/06/07 09:14:29;;;;;;;133.98;126.85;;;;;;;23.50;50.01;96668.13;5071560;28;20200;-69
2022/06/07 09:16:56;;;;;;;99.90;94.47;;;;;;;23.83;49.58;96657.00;5072646;28;20584;-68
2022/06/07 09:19:26;;;;;;;102.95;97.20;;;;;;;24.16;47.83;96660.75;5072048;28;20220;-70
2022/06/07 09:21:53;;;;;;;147.80;139.73;;;;;;;23.66;48.65;96659.66;5072897;28;20189;-68
2022/06/07 09:24:42;;;;;;;153.98;145.77;;;;;;;23.91;46.70;96656.97;5071777;28;20222;-68
2022/06/07 09:27:15;;;;;;;88.68;84.03;;;;;;;23.56;46.06;96647.38;5072158;28;20179;-69
2022/06/07 09:29:42;;;;;;;154.38;146.20;;;;;;;23.06;47.73;96652.25;5072460;28;20185;-69
2022/06/07 09:32:10;;;;;;;239.20;225.65;;;;;;;23.72;46.93;96643.13;5072817;28;20267;-68
2022/06/07 09:34:37;;;;;;;285.70;269.35;;;;;;;23.76;47.38;96649.41;5072159;28;20605;-69
2022/06/07 09:37:06;;;;;;;177.00;167.55;;;;;;;23.77;47.75;96651.00;5071311;28;20224;-68
2022/06/07 09:39:38;;;;;;;150.68;142.57;;;;;;;22.86;49.61;96650.09;5072108;28;20204;-69
2022/06/07 09:42:30;;;;;;;60.17;56.85;;;;;;;22.80;50.67;96647.56;5071257;28;20701;-68
2022/06/07 09:45:08;;;;;;;85.68;80.90;;;;;;;22.32;51.32;96642.09;5070901;28;20195;-68
2022/06/07 09:47:33;;;;;;;79.43;73.85;;;;;;;22.04;51.26;96645.22;5071931;28;20173;-69
2022/06/07 09:50:01;;;;;;;82.57;77.93;;;;;;;21.99;51.49;96646.13;5072073;28;20183;-67
2022/06/07 09:52:41;;;;;;;39.65;37.47;;;;;;;21.72;51.77;96640.84;5072260;28;20185;-69
2022/06/07 09:55:21;;;;;;;38.15;36.13;;;;;;;22.54;49.95;96641.28;5071939;28;20183;-68
2022/06/07 09:58:11;;;;;;;33.85;32.10;;;;;;;22.28;50.50;96645.69;5071963;28;20618;-68
2022/06/07 10:00:49;;;;;;;43.47;41.25;;;;;;;22.60;49.54;96640.06;5053245;28;20551;-68
2022/06/07 10:03:39;;;;;;;44.45;42.10;;;;;;;23.02;48.59;96636.00;5072463;28;20177;-67
2022/06/07 10:06:27;;;;;;;99.78;94.47;;;;;;;23.29;47.84;96632.34;5071613;28;20221;-68
2022/06/07 10:09:12;;;;;;;211.20;199.85;;;;;;;23.35;47.27;96632.97;5071205;28;20185;-68
2022/06/07 10:12:14;;;;;;;152.00;144.05;;;;;;;23.04;48.66;96633.03;5065122;28;20304;-68
2022/06/07 10:14:48;;;;;;;81.70;77.38;;;;;;;22.82;49.60;96625.88;5047076;28;20185;-68
2022/06/07 10:17:55;;;;;;;90.32;85.45;;;;;;;22.73;49.63;96625.88;5071927;28;20622;-68
2022/06/07 10:20:45;;;;;;;41.50;38.92;;;;;;;22.84;50.09;96628.25;4980850;28;20303;-68
2022/06/07 10:23:51;;;;;;;33.65;31.90;;;;;;;23.16;48.98;96627.88;5071354;28;20185;-69
2022/06/07 10:26:25;;;;;;;97.13;92.13;;;;;;;23.35;46.78;96631.06;5071012;28;20303;-68
2022/06/07 10:29:15;;;;;;;234.15;221.32;;;;;;;23.42;46.14;96626.06;5071382;28;20176;-67
2022/06/07 10:32:06;;;;;;;350.90;330.85;;;;;;;23.64;45.67;96622.47;5071719;28;20633;-68
2022/06/07 10:34:50;;;;;;;141.30;134.10;;;;;;;23.89;45.55;96618.25;5066434;28;20243;-68
2022/06/07 10:37:31;;;;;;;118.57;112.43;;;;;;;23.57;44.16;96620.28;5064752;28;20224;-68
2022/06/07 10:40:14;;;;;;;252.05;238.60;;;;;;;23.72;43.85;96619.03;5071366;28;20201;-67
2022/06/07 10:43:05;;;;;;;328.02;309.75;;;;;;;23.37;44.45;96620.84;5068912;28;20256;-68
2022/06/07 10:45:34;;;;;;;315.58;298.05;;;;;;;22.82;45.42;96614.41;5071659;28;20838;-68
2022/06/07 10:48:23;;;;;;;452.33;426.85;;;;;;;22.46;44.65;96615.31;5071874;28;20199;-68
2022/06/07 10:51:03;;;;;;;468.58;440.92;;;;;;;22.52;45.43;96616.75;5071363;28;20173;-68
2022/06/07 10:53:38;;;;;;;424.02;399.30;;;;;;;22.32;46.04;96618.06;5071440;28;20699;-68
2022/06/07 10:56:19;;;;;;;429.27;404.27;;;;;;;22.21;46.27;96613.28;5072801;28;20226;-68
2022/06/07 10:58:52;;;;;;;255.13;241.38;;;;;;;21.90;47.11;96615.88;5077448;28;20173;-68
2022/06/07 11:01:30;;;;;;;89.10;84.32;;;;;;;21.97;46.88;96614.38;5074758;28;20213;-69
2022/06/07 11:10:25;;;;;;;271.15;256.67;;;;;;;22.64;45.50;96605.50;5065117;28;20188;-68
2022/06/07 11:13:16;;;;;;;205.57;194.65;;;;;;;22.91;45.44;96604.53;5075394;28;20169;-67
2022/06/07 11:15:59;;;;;;;186.35;176.60;;;;;;;23.53;43.68;96595.25;5075578;28;20204;-68
2022/06/07 11:18:26;;;;;;;314.30;297.02;;;;;;;23.73;44.12;96599.22;5075318;28;20170;-67
2022/06/07 11:21:00;;;;;;;483.20;451.35;;;;;;;23.70;43.09;96599.03;5075310;28;20595;-68
2022/06/07 11:23:31;;;;;;;380.77;358.65;;;;;;;23.87;41.81;96601.69;5074854;28;20643;-69
2022/06/07 11:26:36;;;;;;;254.70;239.27;;;;;;;24.09;42.10;96588.13;5062881;28;20201;-69
2022/06/07 11:29:07;;;;;;;301.05;281.42;;;;;;;24.26;42.39;96573.94;5033374;28;20205;-67
2022/06/07 11:31:33;;;;;;;319.08;298.38;;;;;;;24.90;40.98;96582.75;5074744;28;20181;-68
2022/06/07 11:34:22;;;;;;;90.00;85.35;;;;;;;24.50;39.98;96578.78;5075308;28;20177;-67
2022/06/07 11:36:48;;;;;;;387.73;365.83;;;;;;;24.26;41.34;96577.41;5074347;28;20207;-67